createdAt,value
2023-08-30T00:02:48.996Z,7.80
2023-08-30T00:07:52.055Z,8.10
2023-08-30T00:12:55.377Z,7.80
2023-08-30T00:17:58.431Z,8.40
2023-08-30T00:23:01.600Z,8.70
2023-08-30T00:28:05.113Z,9.40
2023-08-30T00:33:08.061Z,11.00
2023-08-30T00:38:11.609Z,10.80
2023-08-30T00:43:15.261Z,12.80
2023-08-30T00:48:20.761Z,13.10
2023-08-30T00:53:24.019Z,13.60
2023-08-30T00:58:30.450Z,17.50
2023-08-30T01:03:33.748Z,16.20
2023-08-30T01:08:38.485Z,16.20
2023-08-30T01:13:53.179Z,17.20
2023-08-30T01:18:58.224Z,18.00
2023-08-30T01:24:04.401Z,20.10
2023-08-30T01:29:10.275Z,21.40
2023-08-30T01:34:14.688Z,20.90
2023-08-30T01:39:17.904Z,18.90
2023-08-30T01:44:21.273Z,22.20
2023-08-30T01:49:25.654Z,20.00
2023-08-30T01:54:30.221Z,21.10
2023-08-30T01:59:33.335Z,26.10
2023-08-30T02:04:36.375Z,18.60
2023-08-30T02:10:03.202Z,24.10
2023-08-30T02:15:08.682Z,18.70
2023-08-30T02:20:12.405Z,21.30
2023-08-30T02:25:15.674Z,17.00
2023-08-30T02:30:18.650Z,25.50
2023-08-30T02:35:21.741Z,21.90
2023-08-30T02:40:24.669Z,21.40
2023-08-30T02:45:27.663Z,24.30
2023-08-30T02:50:30.642Z,22.80
2023-08-30T02:55:33.644Z,22.20
2023-08-30T03:00:36.677Z,21.10
2023-08-30T03:05:39.662Z,27.30
2023-08-30T03:10:42.668Z,27.20
2023-08-30T03:15:46.454Z,28.30
2023-08-30T03:20:49.498Z,26.70
2023-08-30T03:25:53.119Z,31.70
2023-08-30T03:30:56.182Z,33.00
2023-08-30T03:36:00.386Z,33.70
2023-08-30T03:41:04.926Z,30.70
2023-08-30T03:46:08.201Z,29.80
2023-08-30T03:51:11.328Z,33.80
2023-08-30T03:56:14.344Z,34.70
2023-08-30T04:01:17.428Z,28.00
2023-08-30T04:06:20.490Z,22.80
2023-08-30T04:11:23.775Z,26.30
2023-08-30T04:16:27.123Z,24.70
2023-08-30T04:21:30.191Z,26.60
2023-08-30T04:26:33.203Z,30.10
2023-08-30T04:31:36.199Z,25.20
2023-08-30T04:36:39.821Z,32.10
2023-08-30T04:41:42.839Z,31.80
2023-08-30T04:46:45.862Z,26.90
2023-08-30T04:51:49.145Z,26.00
2023-08-30T04:56:52.692Z,26.70
2023-08-30T05:01:55.780Z,24.50
2023-08-30T05:06:58.786Z,22.10
2023-08-30T05:12:02.042Z,23.90
2023-08-30T05:17:05.410Z,19.30
2023-08-30T05:22:08.837Z,19.70
2023-08-30T05:27:12.965Z,18.70
2023-08-30T05:32:15.979Z,19.50
2023-08-30T05:37:18.879Z,17.00
2023-08-30T05:42:21.893Z,10.20
2023-08-30T05:47:25.109Z,18.70
2023-08-30T05:52:28.111Z,13.80
2023-08-30T05:57:34.753Z,14.50
2023-08-30T06:02:37.794Z,13.70
2023-08-30T06:07:40.832Z,11.70
2023-08-30T06:12:43.916Z,15.10
2023-08-30T06:17:47.804Z,14.10
2023-08-30T06:22:51.162Z,13.60
2023-08-30T06:28:00.176Z,14.70
2023-08-30T06:33:03.848Z,17.00
2023-08-30T06:38:07.488Z,20.80
2023-08-30T06:43:10.761Z,15.00
2023-08-30T06:48:14.484Z,14.30
2023-08-30T06:53:17.600Z,12.20
2023-08-30T06:58:20.609Z,16.70
2023-08-30T07:03:23.777Z,17.70
2023-08-30T07:08:28.048Z,14.80
2023-08-30T07:13:31.050Z,12.30
2023-08-30T07:18:34.074Z,14.10
2023-08-30T07:23:37.073Z,14.30
2023-08-30T07:28:40.079Z,20.10
2023-08-30T07:33:43.083Z,14.70
2023-08-30T07:38:46.092Z,14.50
2023-08-30T07:43:49.088Z,14.60
2023-08-30T07:48:52.005Z,12.60
2023-08-30T07:53:54.834Z,13.50
2023-08-30T07:58:58.577Z,18.00
2023-08-30T08:04:07.131Z,10.30
2023-08-30T08:09:10.999Z,11.40
2023-08-30T08:14:14.769Z,11.10
2023-08-30T08:19:18.024Z,12.30
2023-08-30T08:24:21.034Z,11.30
2023-08-30T08:29:24.041Z,13.60
2023-08-30T08:34:27.056Z,10.40
2023-08-30T08:39:31.888Z,11.60
2023-08-30T08:44:36.949Z,11.50
2023-08-30T08:49:40.978Z,9.70
2023-08-30T08:54:45.216Z,10.90
2023-08-30T08:59:48.368Z,11.20
2023-08-30T09:04:53.985Z,11.70
2023-08-30T09:09:57.110Z,9.70
2023-08-30T09:15:00.138Z,8.00
2023-08-30T09:20:14.083Z,13.00
2023-08-30T09:25:26.293Z,13.10
2023-08-30T09:30:30.723Z,11.60
2023-08-30T09:35:33.961Z,14.10
2023-08-30T09:40:36.963Z,12.60
2023-08-30T09:45:40.422Z,12.70
2023-08-30T09:50:46.463Z,12.20
2023-08-30T09:55:50.513Z,10.30
2023-08-30T10:00:54.178Z,9.30
2023-08-30T10:05:57.886Z,12.10
2023-08-30T10:11:01.558Z,10.00
2023-08-30T10:16:06.096Z,8.80
2023-08-30T10:21:13.815Z,8.80
2023-08-30T10:26:18.455Z,8.60
2023-08-30T10:31:22.228Z,11.60
2023-08-30T10:36:27.342Z,14.10
2023-08-30T10:41:30.444Z,15.00
2023-08-30T10:46:35.227Z,16.80
2023-08-30T10:51:42.510Z,13.20
2023-08-30T10:57:02.820Z,11.50
2023-08-30T11:02:06.338Z,10.70
2023-08-30T11:07:09.631Z,10.80
2023-08-30T11:12:13.269Z,8.20
2023-08-30T11:17:19.235Z,13.10
2023-08-30T11:22:22.554Z,11.10
2023-08-30T11:27:25.465Z,10.20
2023-08-30T11:32:28.469Z,8.70
2023-08-30T11:37:31.646Z,7.80
2023-08-30T11:42:35.226Z,7.40
2023-08-30T11:47:38.538Z,10.60
2023-08-30T11:52:42.324Z,8.50
2023-08-30T11:57:46.502Z,8.60
2023-08-30T12:02:49.753Z,8.10
2023-08-30T12:07:52.898Z,8.20
2023-08-30T12:12:56.205Z,7.50
2023-08-30T12:18:07.727Z,9.80
2023-08-30T12:23:24.031Z,8.70
2023-08-30T12:28:28.250Z,7.70
2023-08-30T12:33:32.720Z,8.80
2023-08-30T12:38:35.654Z,9.80
2023-08-30T12:43:38.517Z,7.80
2023-08-30T12:48:42.544Z,7.70
2023-08-30T12:53:45.557Z,7.90
2023-08-30T12:58:48.563Z,7.80
2023-08-30T13:03:51.573Z,7.10
2023-08-30T13:08:54.580Z,8.50
2023-08-30T13:13:59.727Z,5.40
2023-08-30T13:19:02.737Z,6.60
2023-08-30T13:24:06.601Z,6.10
2023-08-30T13:29:09.500Z,5.00
2023-08-30T13:34:12.473Z,7.50
2023-08-30T13:39:16.202Z,6.40
2023-08-30T13:44:19.213Z,5.90
2023-08-30T13:49:22.418Z,6.60
2023-08-30T13:54:26.004Z,6.50
2023-08-30T13:59:29.961Z,6.10
2023-08-30T14:04:39.223Z,6.30
2023-08-30T14:09:42.339Z,6.70
2023-08-30T14:14:45.332Z,5.50
2023-08-30T14:19:48.830Z,7.10
2023-08-30T14:25:03.312Z,7.00
2023-08-30T14:30:14.932Z,5.80
2023-08-30T14:35:18.251Z,5.00
2023-08-30T14:40:21.259Z,6.00
2023-08-30T14:45:24.397Z,5.30
2023-08-30T14:50:27.397Z,4.50
2023-08-30T14:55:30.862Z,4.30
2023-08-30T15:00:33.942Z,5.60
2023-08-30T15:05:37.112Z,6.50
2023-08-30T15:10:40.573Z,5.70
2023-08-30T15:15:43.645Z,5.30
2023-08-30T15:20:48.696Z,4.50
2023-08-30T15:25:52.108Z,3.90
2023-08-30T15:30:56.148Z,5.40
2023-08-30T15:35:59.789Z,5.50
2023-08-30T15:41:07.575Z,4.40
2023-08-30T15:46:12.837Z,4.60
2023-08-30T15:51:23.827Z,6.40
2023-08-30T15:56:27.774Z,5.50
2023-08-30T16:01:31.055Z,7.00
2023-08-30T16:06:34.183Z,6.80
2023-08-30T16:11:37.288Z,7.40
2023-08-30T16:16:42.431Z,10.40
2023-08-30T16:21:46.146Z,9.50
2023-08-30T16:26:52.076Z,8.80
2023-08-30T16:31:55.977Z,7.70
2023-08-30T16:36:58.994Z,6.40
2023-08-30T16:42:02.098Z,6.90
2023-08-30T16:47:05.762Z,6.70
2023-08-30T16:52:10.459Z,7.20
2023-08-30T16:57:13.470Z,7.30
2023-08-30T17:02:16.431Z,7.00
2023-08-30T17:07:19.485Z,5.60
2023-08-30T17:12:22.590Z,6.00
2023-08-30T17:17:25.593Z,5.40
2023-08-30T17:22:28.711Z,6.10
2023-08-30T17:27:31.759Z,3.20
2023-08-30T17:32:35.260Z,2.40
2023-08-30T17:37:38.354Z,1.70
2023-08-30T17:42:41.462Z,1.60
2023-08-30T17:47:44.603Z,1.60
2023-08-30T17:52:47.678Z,2.50
2023-08-30T17:57:50.776Z,2.20
2023-08-30T18:02:53.846Z,2.30
2023-08-30T18:07:58.424Z,3.10
2023-08-30T18:13:01.433Z,6.60
2023-08-30T18:18:06.171Z,4.70
2023-08-30T18:23:09.187Z,3.60
2023-08-30T18:28:13.223Z,3.30
2023-08-30T18:33:16.888Z,3.30
2023-08-30T18:38:19.963Z,4.10
2023-08-30T18:43:23.568Z,2.80
2023-08-30T18:48:26.574Z,5.40
2023-08-30T18:53:29.579Z,3.30
2023-08-30T18:58:33.016Z,4.00
2023-08-30T19:03:36.238Z,3.50
2023-08-30T19:08:39.528Z,5.00
2023-08-30T19:13:43.249Z,4.60
2023-08-30T19:18:47.903Z,2.70
2023-08-30T19:23:52.130Z,2.60
2023-08-30T19:28:55.754Z,3.20
2023-08-30T19:33:59.478Z,3.60
2023-08-30T19:39:04.942Z,2.30
2023-08-30T19:44:07.946Z,2.10
2023-08-30T19:49:11.166Z,1.80
2023-08-30T19:54:14.370Z,1.80
2023-08-30T19:59:17.788Z,1.90
2023-08-30T20:04:21.109Z,1.60
2023-08-30T20:09:24.726Z,1.80
2023-08-30T20:14:28.091Z,1.90
2023-08-30T20:19:31.185Z,1.80
2023-08-30T20:24:34.560Z,1.70
2023-08-30T20:29:37.669Z,1.80
2023-08-30T20:34:41.593Z,1.90
2023-08-30T20:39:44.603Z,2.10
2023-08-30T20:44:47.609Z,1.90
2023-08-30T20:49:50.922Z,2.30
2023-08-30T20:54:54.958Z,1.70
2023-08-30T20:59:57.961Z,1.90
2023-08-30T21:05:02.036Z,1.80
2023-08-30T21:10:05.816Z,2.80
2023-08-30T21:15:09.632Z,2.00
2023-08-30T21:20:12.666Z,2.10
2023-08-30T21:25:15.666Z,3.00
2023-08-30T21:30:18.791Z,2.10
2023-08-30T21:35:21.771Z,2.10
2023-08-30T21:40:24.795Z,2.10
2023-08-30T21:45:28.502Z,2.70
2023-08-30T21:50:31.824Z,2.70
2023-08-30T21:55:34.829Z,2.60
2023-08-30T22:00:38.246Z,2.70
2023-08-30T22:05:41.569Z,3.20
2023-08-30T22:10:44.506Z,4.40
2023-08-30T22:15:47.466Z,3.30
2023-08-30T22:20:52.934Z,3.80
2023-08-30T22:25:55.954Z,2.40
2023-08-30T22:30:59.097Z,2.80
2023-08-30T22:36:05.744Z,3.80
2023-08-30T22:41:08.746Z,3.90
2023-08-30T22:46:11.753Z,3.20
2023-08-30T22:51:14.864Z,2.90
2023-08-30T22:56:18.977Z,7.40
2023-08-30T23:01:22.021Z,6.50
2023-08-30T23:06:25.758Z,3.70
2023-08-30T23:11:28.733Z,3.70
2023-08-30T23:16:31.843Z,3.40
2023-08-30T23:21:35.269Z,2.70
2023-08-30T23:26:38.882Z,2.30
2023-08-30T23:31:41.754Z,3.00
2023-08-30T23:36:44.888Z,2.70
2023-08-30T23:41:48.309Z,3.50
2023-08-30T23:46:51.310Z,2.60
2023-08-30T23:51:55.139Z,2.60
2023-08-30T23:56:58.747Z,4.70
